Time;durP1;ratioP1;P1;durP2;ratioP2;P2;SDS_P1;SDS_P2;PMS_P1;PMS_P2;Temp;Humidity;BMP_temperature;BMP_pressure;BME280_temperature;BME280_humidity;BME280_pressure;Samples;Min_cycle;Max_cycle;Signal;HPM_P1;HPM_P2
2022/08/04 00:01:04;;;;;;;3.67;3.17;;;;;;;;;;4919534;29;20140;-80
2022/08/04 00:03:40;;;;;;;3.58;2.90;;;;;;;;;;4919357;29;20064;-79
2022/08/04 00:06:25;;;;;;;4.40;3.20;;;;;;;;;;4919490;29;20036;-80
2022/08/04 00:09:04;;;;;;;4.45;3.40;;;;;;;;;;4940387;29;20028;-79
2022/08/04 00:11:32;;;;;;;4.90;3.63;;;;;;;;;;4920126;29;20032;-78
2022/08/04 00:13:59;;;;;;;5.32;2.95;;;;;;;;;;4919306;29;20028;-82
2022/08/04 00:16:29;;;;;;;3.30;3.00;;;;;;;;;;4936206;29;20050;-79
2022/08/04 00:18:57;;;;;;;3.35;3.05;;;;;;;;;;4919306;29;20111;-80
2022/08/04 00:21:25;;;;;;;4.07;3.67;;;;;;;;;;4919159;29;20039;-80
2022/08/04 00:23:54;;;;;;;3.55;3.25;;;;;;;;;;4919172;29;20020;-80
2022/08/04 00:26:20;;;;;;;5.30;3.40;;;;;;;;;;4936239;29;20024;-80
2022/08/04 00:28:47;;;;;;;4.60;3.38;;;;;;;;;;4936164;29;20034;-80
2022/08/04 00:31:14;;;;;;;3.88;3.10;;;;;;;;;;4936141;29;20401;-80
2022/08/04 00:33:43;;;;;;;6.03;3.10;;;;;;;;;;4918867;29;20087;-80
2022/08/04 00:36:11;;;;;;;3.78;3.38;;;;;;;;;;4919011;29;20046;-79
2022/08/04 00:38:40;;;;;;;6.80;3.55;;;;;;;;;;4918981;29;20027;-80
2022/08/04 00:41:06;;;;;;;5.82;3.53;;;;;;;;;;4918988;29;20027;-78
2022/08/04 00:43:42;;;;;;;3.75;3.30;;;;;;;;;;4936121;29;20024;-80
2022/08/04 00:46:14;;;;;;;5.15;3.38;;;;;;;;;;4936625;29;20032;-79
2022/08/04 00:48:58;;;;;;;4.97;3.65;;;;;;;;;;4918945;29;20485;-79
2022/08/04 00:51:43;;;;;;;3.67;2.92;;;;;;;;;;4918912;29;20115;-80
2022/08/04 00:54:28;;;;;;;3.72;3.28;;;;;;;;;;4920656;29;20034;-79
2022/08/04 00:57:12;;;;;;;3.67;3.28;;;;;;;;;;4922743;29;20059;-79
2022/08/04 00:59:51;;;;;;;5.90;3.70;;;;;;;;;;4922652;29;20055;-80
2022/08/04 01:02:27;;;;;;;4.15;3.50;;;;;;;;;;4922819;29;20441;-79
2022/08/04 01:05:16;;;;;;;3.60;3.30;;;;;;;;;;4922521;29;20043;-79
2022/08/04 01:07:42;;;;;;;3.92;3.20;;;;;;;;;;4896404;29;20040;-80
2022/08/04 01:10:22;;;;;;;3.90;3.50;;;;;;;;;;4939597;29;20035;-79
2022/08/04 01:13:00;;;;;;;3.72;3.33;;;;;;;;;;4922247;29;20114;-79
2022/08/04 01:15:35;;;;;;;3.85;3.25;;;;;;;;;;4922274;29;20079;-79
2022/08/04 01:18:01;;;;;;;3.28;2.97;;;;;;;;;;4922404;29;20031;-79
2022/08/04 01:20:32;;;;;;;4.22;3.40;;;;;;;;;;4922396;29;20035;-80
2022/08/04 01:23:21;;;;;;;4.45;3.28;;;;;;;;;;4939461;29;20107;-79
2022/08/04 01:25:54;;;;;;;5.05;3.20;;;;;;;;;;4922211;29;20032;-79
2022/08/04 01:28:23;;;;;;;3.72;3.35;;;;;;;;;;4922193;29;20031;-79
2022/08/04 01:30:49;;;;;;;3.80;3.40;;;;;;;;;;4922159;29;20020;-80
2022/08/04 01:33:17;;;;;;;5.93;3.20;;;;;;;;;;4921871;29;20513;-81
2022/08/04 01:35:47;;;;;;;3.85;3.42;;;;;;;;;;4922127;29;20059;-79
2022/08/04 01:38:19;;;;;;;4.20;3.70;;;;;;;;;;4921939;29;20245;-78
2022/08/04 01:40:46;;;;;;;4.57;3.00;;;;;;;;;;4922411;29;20135;-79
2022/08/04 01:43:13;;;;;;;4.07;3.47;;;;;;;;;;4921890;29;20544;-78
2022/08/04 01:45:39;;;;;;;4.63;3.55;;;;;;;;;;4938934;29;20035;-79
2022/08/04 01:48:07;;;;;;;4.00;3.58;;;;;;;;;;4938879;29;20030;-78
2022/08/04 01:50:36;;;;;;;3.42;3.13;;;;;;;;;;4938847;29;20450;-79
2022/08/04 01:53:03;;;;;;;5.05;3.35;;;;;;;;;;4921969;29;20426;-79
2022/08/04 01:55:30;;;;;;;3.35;3.03;;;;;;;;;;4921647;29;20489;-78
2022/08/04 01:57:58;;;;;;;4.82;3.70;;;;;;;;;;4921563;29;20038;-78
2022/08/04 02:00:26;;;;;;;3.88;3.30;;;;;;;;;;4939129;29;20024;-79
2022/08/04 02:02:52;;;;;;;3.72;3.10;;;;;;;;;;4938645;29;20031;-79
2022/08/04 02:05:20;;;;;;;4.18;3.50;;;;;;;;;;4920446;29;20149;-78
2022/08/04 02:08:04;;;;;;;4.38;3.30;;;;;;;;;;4938996;29;20047;-78
2022/08/04 02:11:03;;;;;;;3.92;3.50;;;;;;;;;;4921351;29;20062;-78
2022/08/04 02:13:37;;;;;;;5.70;3.40;;;;;;;;;;4890757;29;20042;-80
2022/08/04 02:16:24;;;;;;;4.50;3.78;;;;;;;;;;4921409;29;20370;-80
2022/08/04 02:18:50;;;;;;;3.70;3.30;;;;;;;;;;4921214;29;20028;-80
2022/08/04 02:21:22;;;;;;;3.90;3.47;;;;;;;;;;4938211;29;20040;-75
2022/08/04 02:23:51;;;;;;;4.88;3.88;;;;;;;;;;4922032;29;20024;-78
2022/08/04 02:26:20;;;;;;;4.93;3.40;;;;;;;;;;4921178;29;20090;-80
2022/08/04 02:28:48;;;;;;;4.35;3.70;;;;;;;;;;4938337;29;20031;-79
2022/08/04 02:31:29;;;;;;;4.63;3.90;;;;;;;;;;4921301;29;20461;-77
2022/08/04 02:34:01;;;;;;;3.60;3.30;;;;;;;;;;4937755;29;20051;-79
2022/08/04 02:36:31;;;;;;;4.00;3.60;;;;;;;;;;4921074;29;20039;-79
2022/08/04 02:39:01;;;;;;;4.43;3.75;;;;;;;;;;4920964;29;20466;-79
2022/08/04 02:41:29;;;;;;;4.07;3.50;;;;;;;;;;4920885;29;20105;-79
2022/08/04 02:43:56;;;;;;;3.92;3.53;;;;;;;;;;4920943;29;20031;-78
2022/08/04 02:46:22;;;;;;;5.25;3.92;;;;;;;;;;4937689;29;20044;-78
2022/08/04 02:48:49;;;;;;;4.90;3.83;;;;;;;;;;4920836;29;20055;-80
2022/08/04 02:51:18;;;;;;;5.00;3.70;;;;;;;;;;4920710;29;20055;-81
2022/08/04 02:53:46;;;;;;;5.32;3.80;;;;;;;;;;4920613;29;20032;-81
2022/08/04 02:56:12;;;;;;;4.57;3.67;;;;;;;;;;4920629;29;20114;-80
2022/08/04 02:58:43;;;;;;;4.28;3.70;;;;;;;;;;4920581;29;20028;-78
2022/08/04 03:01:09;;;;;;;3.63;3.30;;;;;;;;;;4937639;29;20130;-79
2022/08/04 03:03:43;;;;;;;4.35;3.63;;;;;;;;;;4938084;29;20035;-79
2022/08/04 03:06:10;;;;;;;4.03;3.63;;;;;;;;;;4937753;29;20095;-79
2022/08/04 03:08:36;;;;;;;4.18;3.72;;;;;;;;;;4920275;29;20030;-79
2022/08/04 03:11:17;;;;;;;4.32;3.92;;;;;;;;;;4937829;29;20032;-77
2022/08/04 03:13:44;;;;;;;4.95;3.92;;;;;;;;;;4920286;29;20492;-79
2022/08/04 03:16:24;;;;;;;4.70;4.20;;;;;;;;;;4920029;29;20032;-77
2022/08/04 03:19:04;;;;;;;8.18;4.20;;;;;;;;;;4937393;29;20031;-78
2022/08/04 03:21:49;;;;;;;5.63;4.28;;;;;;;;;;4920295;29;20031;-79
2022/08/04 03:24:19;;;;;;;8.15;3.92;;;;;;;;;;4937352;29;20107;-76
2022/08/04 03:26:50;;;;;;;4.53;3.60;;;;;;;;;;4920022;29;20044;-79
2022/08/04 03:29:31;;;;;;;4.95;4.05;;;;;;;;;;4919723;29;20036;-79
2022/08/04 03:32:12;;;;;;;4.32;3.90;;;;;;;;;;4919925;29;20032;-78
2022/08/04 03:34:38;;;;;;;4.20;3.80;;;;;;;;;;4919661;29;20052;-80
2022/08/04 03:37:17;;;;;;;4.53;4.00;;;;;;;;;;4919855;29;20485;-79
2022/08/04 03:40:02;;;;;;;5.47;3.90;;;;;;;;;;4936873;29;20493;-78
2022/08/04 03:42:47;;;;;;;4.13;3.72;;;;;;;;;;4919775;29;20034;-80
2022/08/04 03:45:40;;;;;;;6.50;3.92;;;;;;;;;;4919630;29;20039;-79
2022/08/04 03:48:12;;;;;;;5.28;4.10;;;;;;;;;;4919763;29;20101;-78
2022/08/04 03:53:07;;;;;;;4.60;4.18;;;;;;;;;;4936525;29;20028;-80
2022/08/04 03:53:38;;;;;;;5.95;3.88;;;;;;;;;;4936155;29;20030;-78
2022/08/04 03:56:30;;;;;;;6.70;4.72;;;;;;;;;;4919606;29;20087;-79
2022/08/04 03:59:00;;;;;;;5.13;4.03;;;;;;;;;;4916511;29;20374;-79
2022/08/04 04:01:26;;;;;;;6.35;4.35;;;;;;;;;;4918927;29;20114;-79
2022/08/04 04:04:10;;;;;;;6.00;4.35;;;;;;;;;;4919355;29;20034;-79
2022/08/04 04:06:46;;;;;;;5.25;3.92;;;;;;;;;;4919163;29;20039;-78
2022/08/04 04:09:12;;;;;;;5.75;3.83;;;;;;;;;;4919401;29;20051;-79
2022/08/04 04:11:57;;;;;;;5.18;3.90;;;;;;;;;;4919344;29;20366;-79
2022/08/04 04:14:37;;;;;;;5.93;4.00;;;;;;;;;;4919389;29;20036;-79
2022/08/04 04:17:04;;;;;;;5.63;3.85;;;;;;;;;;4919249;29;20028;-79
2022/08/04 04:19:36;;;;;;;5.15;4.30;;;;;;;;;;4919212;29;20114;-79
2022/08/04 04:22:14;;;;;;;5.63;4.13;;;;;;;;;;4919214;29;20032;-79
2022/08/04 04:24:59;;;;;;;7.65;4.30;;;;;;;;;;4936042;29;20028;-78
2022/08/04 04:27:44;;;;;;;6.22;3.90;;;;;;;;;;4918897;29;20074;-83
2022/08/04 04:30:39;;;;;;;4.47;3.88;;;;;;;;;;4918870;29;20549;-80
2022/08/04 04:33:11;;;;;;;5.50;4.10;;;;;;;;;;4906388;29;20061;-75
2022/08/04 04:35:49;;;;;;;8.20;4.10;;;;;;;;;;4918988;29;20027;-76
2022/08/04 04:38:15;;;;;;;6.85;4.15;;;;;;;;;;4936347;29;20036;-82
2022/08/04 04:40:47;;;;;;;4.70;3.88;;;;;;;;;;4919272;29;20102;-81
2022/08/04 04:43:13;;;;;;;6.05;4.07;;;;;;;;;;4918736;29;20083;-81
2022/08/04 04:45:42;;;;;;;6.63;4.10;;;;;;;;;;4935605;29;20091;-82
2022/08/04 04:48:36;;;;;;;6.30;3.60;;;;;;;;;;4920869;29;20039;-82
2022/08/04 04:51:08;;;;;;;9.20;4.38;;;;;;;;;;4918479;29;20032;-83
2022/08/04 04:53:50;;;;;;;19.45;9.38;;;;;;;;;;4918646;29;20055;-84
2022/08/04 04:56:42;;;;;;;18.77;12.30;;;;;;;;;;4918797;29;20111;-84
2022/08/04 04:59:14;;;;;;;22.33;14.02;;;;;;;;;;4890254;29;20043;-83
2022/08/04 05:01:55;;;;;;;20.98;14.23;;;;;;;;;;4936562;29;20023;-83
2022/08/04 05:04:40;;;;;;;20.83;13.25;;;;;;;;;;4918883;29;20032;-83
2022/08/04 05:07:22;;;;;;;17.10;12.23;;;;;;;;;;4919005;29;20067;-76
2022/08/04 05:09:54;;;;;;;15.25;9.85;;;;;;;;;;4918848;29;20481;-85
2022/08/04 05:12:38;;;;;;;16.08;9.30;;;;;;;;;;4918807;29;20074;-83
2022/08/04 05:15:07;;;;;;;19.77;8.35;;;;;;;;;;4935795;29;20035;-78
2022/08/04 05:17:36;;;;;;;15.20;8.77;;;;;;;;;;4936338;29;20492;-79
2022/08/04 05:20:02;;;;;;;17.63;8.00;;;;;;;;;;4918652;29;20032;-79
2022/08/04 05:22:47;;;;;;;12.27;7.70;;;;;;;;;;4918655;29;20023;-79
2022/08/04 05:25:25;;;;;;;15.15;6.90;;;;;;;;;;4935954;29;20067;-79
2022/08/04 05:28:06;;;;;;;13.00;6.03;;;;;;;;;;4918678;29;20028;-77
2022/08/04 05:30:47;;;;;;;7.72;5.85;;;;;;;;;;4903103;29;20052;-77
2022/08/04 05:33:15;;;;;;;11.77;5.70;;;;;;;;;;4935872;29;20437;-78
2022/08/04 05:35:43;;;;;;;9.70;5.13;;;;;;;;;;4918682;29;20035;-77
2022/08/04 05:38:11;;;;;;;6.47;3.72;;;;;;;;;;4918555;29;20032;-78
2022/08/04 05:40:38;;;;;;;5.10;3.58;;;;;;;;;;4938070;29;20024;-78
2022/08/04 05:43:05;;;;;;;4.70;2.55;;;;;;;;;;4921936;29;20031;-78
2022/08/04 05:45:34;;;;;;;4.07;2.47;;;;;;;;;;4921772;29;20043;-79
2022/08/04 05:48:04;;;;;;;3.65;2.58;;;;;;;;;;4922431;29;20036;-84
2022/08/04 05:50:30;;;;;;;5.40;2.47;;;;;;;;;;4938819;29;20385;-87
2022/08/04 05:52:57;;;;;;;6.22;2.72;;;;;;;;;;4921832;29;20027;-89
2022/08/04 05:55:23;;;;;;;4.63;2.58;;;;;;;;;;4921693;29;20513;-87
2022/08/04 05:57:49;;;;;;;5.10;2.60;;;;;;;;;;4921739;29;20031;-85
2022/08/04 06:00:17;;;;;;;3.72;2.60;;;;;;;;;;4921569;29;20122;-77
2022/08/04 06:02:44;;;;;;;5.00;2.40;;;;;;;;;;4939271;29;20027;-81
2022/08/04 06:05:13;;;;;;;4.13;2.40;;;;;;;;;;4921600;29;20027;-79
2022/08/04 06:07:39;;;;;;;3.70;2.20;;;;;;;;;;4938554;29;20417;-80
2022/08/04 06:10:06;;;;;;;3.50;2.28;;;;;;;;;;4921420;29;20034;-83
2022/08/04 06:12:36;;;;;;;2.60;2.03;;;;;;;;;;4938416;29;20102;-78
2022/08/04 06:15:03;;;;;;;3.05;2.35;;;;;;;;;;4938469;29;20053;-82
2022/08/04 06:17:32;;;;;;;4.03;2.58;;;;;;;;;;4921421;29;20034;-81
2022/08/04 06:19:59;;;;;;;2.90;2.20;;;;;;;;;;4921211;29;20030;-83
2022/08/04 06:22:27;;;;;;;4.40;2.30;;;;;;;;;;4921201;29;20119;-79
2022/08/04 06:24:54;;;;;;;4.22;2.42;;;;;;;;;;4938195;29;20027;-82
2022/08/04 06:27:21;;;;;;;4.45;2.05;;;;;;;;;;4921165;29;20126;-79
2022/08/04 06:29:48;;;;;;;3.05;2.20;;;;;;;;;;4938294;29;20469;-80
2022/08/04 06:32:26;;;;;;;3.28;2.13;;;;;;;;;;4938184;29;20504;-78
2022/08/04 06:34:56;;;;;;;2.50;2.00;;;;;;;;;;4938010;29;20044;-81
2022/08/04 06:37:23;;;;;;;5.88;2.30;;;;;;;;;;4921980;29;20054;-80
2022/08/04 06:39:50;;;;;;;2.80;2.10;;;;;;;;;;4920965;29;20500;-82
2022/08/04 06:42:17;;;;;;;3.78;2.35;;;;;;;;;;4920909;29;20039;-80
2022/08/04 06:44:44;;;;;;;5.47;2.22;;;;;;;;;;4920763;29;20032;-83
2022/08/04 06:47:10;;;;;;;2.60;2.10;;;;;;;;;;4938640;29;20043;-78
2022/08/04 06:49:38;;;;;;;3.75;2.00;;;;;;;;;;4937894;29;20159;-80
2022/08/04 06:52:05;;;;;;;3.45;2.10;;;;;;;;;;4920219;29;20032;-80
2022/08/04 06:54:31;;;;;;;2.95;2.03;;;;;;;;;;4920704;29;20031;-79
2022/08/04 06:56:58;;;;;;;3.03;2.20;;;;;;;;;;4920951;29;20031;-81
2022/08/04 06:59:25;;;;;;;2.15;1.70;;;;;;;;;;4937744;29;20493;-89
2022/08/04 07:01:52;;;;;;;3.75;1.70;;;;;;;;;;4938246;29;20106;-75
2022/08/04 07:04:18;;;;;;;5.25;2.13;;;;;;;;;;4938378;29;20111;-87
2022/08/04 07:06:45;;;;;;;4.75;1.67;;;;;;;;;;4920728;29;20046;-80
2022/08/04 07:09:11;;;;;;;6.10;1.98;;;;;;;;;;4921041;29;20058;-89
2022/08/04 07:11:37;;;;;;;2.80;1.92;;;;;;;;;;4921449;29;20437;-81
2022/08/04 07:14:04;;;;;;;2.60;1.77;;;;;;;;;;4920380;29;20032;-79
2022/08/04 07:16:30;;;;;;;4.28;1.90;;;;;;;;;;4920300;29;20051;-78
2022/08/04 07:18:56;;;;;;;3.83;1.73;;;;;;;;;;4937825;29;20027;-78
2022/08/04 07:21:25;;;;;;;2.35;1.92;;;;;;;;;;4920242;29;20032;-79
2022/08/04 07:23:52;;;;;;;3.67;1.88;;;;;;;;;;4920209;29;20051;-74
2022/08/04 07:26:18;;;;;;;3.72;2.15;;;;;;;;;;4937043;29;20039;-74
2022/08/04 07:28:45;;;;;;;2.45;1.77;;;;;;;;;;4919908;29;20393;-73
2022/08/04 07:31:14;;;;;;;3.70;1.98;;;;;;;;;;4937014;29;20489;-78
2022/08/04 07:33:41;;;;;;;3.83;1.80;;;;;;;;;;4936954;29;20058;-81
2022/08/04 07:36:08;;;;;;;7.72;2.00;;;;;;;;;;4920151;29;20127;-78
2022/08/04 07:38:34;;;;;;;2.70;1.80;;;;;;;;;;4919908;29;20027;-81
2022/08/04 07:41:02;;;;;;;2.20;1.80;;;;;;;;;;4919840;29;20441;-80
2022/08/04 07:43:29;;;;;;;2.83;1.60;;;;;;;;;;4937032;29;20028;-79
2022/08/04 07:45:55;;;;;;;3.08;2.03;;;;;;;;;;4919769;29;20035;-80
2022/08/04 07:48:23;;;;;;;3.10;2.03;;;;;;;;;;4919724;29;20075;-79
2022/08/04 07:50:49;;;;;;;3.45;1.70;;;;;;;;;;4919735;29;20036;-79
2022/08/04 07:53:16;;;;;;;3.13;1.70;;;;;;;;;;4919636;29;20023;-78
2022/08/04 07:55:43;;;;;;;3.75;1.80;;;;;;;;;;4936682;29;20027;-79
2022/08/04 07:58:10;;;;;;;6.70;1.70;;;;;;;;;;4937239;29;20027;-83
2022/08/04 08:00:36;;;;;;;3.75;1.48;;;;;;;;;;4936561;29;20031;-86
2022/08/04 08:03:03;;;;;;;3.90;1.60;;;;;;;;;;4919547;29;20086;-85
2022/08/04 08:05:29;;;;;;;4.63;1.73;;;;;;;;;;4921780;29;20090;-87
2022/08/04 08:07:57;;;;;;;3.88;1.60;;;;;;;;;;4936525;29;20072;-93
2022/08/04 08:10:23;;;;;;;4.45;1.67;;;;;;;;;;4919569;29;20027;-85
2022/08/04 08:12:50;;;;;;;3.95;1.85;;;;;;;;;;4919425;29;20058;-88
2022/08/04 08:15:18;;;;;;;2.72;1.67;;;;;;;;;;4919363;29;20123;-91
2022/08/04 08:17:44;;;;;;;2.15;1.70;;;;;;;;;;4919539;29;20028;-83
2022/08/04 08:20:10;;;;;;;2.63;1.60;;;;;;;;;;4936459;29;20027;-88
2022/08/04 08:22:37;;;;;;;1.77;1.30;;;;;;;;;;4919390;29;20035;-91
2022/08/04 08:25:07;;;;;;;3.13;1.67;;;;;;;;;;4919560;29;20027;-92
2022/08/04 08:27:34;;;;;;;3.08;1.80;;;;;;;;;;4919469;29;20084;-86
2022/08/04 08:30:00;;;;;;;5.63;1.63;;;;;;;;;;4919896;29;20414;-88
2022/08/04 08:32:26;;;;;;;2.28;1.70;;;;;;;;;;4919300;29;20027;-91
2022/08/04 08:34:52;;;;;;;2.58;1.52;;;;;;;;;;4918947;29;20126;-85
2022/08/04 08:37:31;;;;;;;3.15;1.50;;;;;;;;;;4936284;29;20055;-83
2022/08/04 08:40:02;;;;;;;2.13;1.33;;;;;;;;;;4919056;29;20478;-89
2022/08/04 08:42:51;;;;;;;2.28;1.60;;;;;;;;;;4919112;29;20039;-86
2022/08/04 08:45:26;;;;;;;4.43;1.58;;;;;;;;;;4935348;29;20039;-89
2022/08/04 08:47:56;;;;;;;4.93;1.60;;;;;;;;;;4919410;29;20020;-91
2022/08/04 08:50:30;;;;;;;3.25;1.27;;;;;;;;;;4919029;29;20024;-89
2022/08/04 08:53:02;;;;;;;2.78;1.50;;;;;;;;;;4920156;29;20397;-87
2022/08/04 08:55:31;;;;;;;1.92;1.40;;;;;;;;;;4918909;29;20503;-90
2022/08/04 08:58:16;;;;;;;3.92;1.42;;;;;;;;;;4919305;29;20052;-85
2022/08/04 09:00:51;;;;;;;3.63;1.42;;;;;;;;;;4918987;29;20171;-85
2022/08/04 09:03:43;;;;;;;2.35;1.45;;;;;;;;;;4918894;29;20118;-85
2022/08/04 09:06:22;;;;;;;4.90;1.50;;;;;;;;;;4897283;29;20032;-87
2022/08/04 09:09:00;;;;;;;2.55;1.33;;;;;;;;;;4936422;29;20425;-85
2022/08/04 09:11:36;;;;;;;3.78;1.42;;;;;;;;;;4919112;29;20030;-88
2022/08/04 09:14:10;;;;;;;3.28;1.40;;;;;;;;;;4919054;29;20028;-85
2022/08/04 09:16:46;;;;;;;3.42;1.30;;;;;;;;;;4922477;29;20079;-87
2022/08/04 09:19:36;;;;;;;4.82;2.08;;;;;;;;;;4922458;29;20039;-85
2022/08/04 09:22:02;;;;;;;3.67;1.50;;;;;;;;;;4929575;29;20039;-85
2022/08/04 09:24:31;;;;;;;2.67;1.42;;;;;;;;;;4939375;29;20027;-87
2022/08/04 09:26:59;;;;;;;4.10;1.42;;;;;;;;;;4922278;29;20038;-88
2022/08/04 09:29:44;;;;;;;3.83;1.45;;;;;;;;;;4922213;29;20028;-86
2022/08/04 09:32:10;;;;;;;3.88;1.30;;;;;;;;;;4923305;29;20035;-87
2022/08/04 09:34:36;;;;;;;2.08;1.30;;;;;;;;;;4922074;29;20044;-87
2022/08/04 09:37:11;;;;;;;2.00;1.50;;;;;;;;;;4921960;29;20461;-86
2022/08/04 09:40:02;;;;;;;5.78;1.33;;;;;;;;;;4922088;29;20020;-86
2022/08/04 09:42:41;;;;;;;2.35;1.13;;;;;;;;;;4922118;29;20370;-84
2022/08/04 09:45:12;;;;;;;3.05;1.30;;;;;;;;;;4921923;29;20119;-85
2022/08/04 09:47:44;;;;;;;2.55;1.40;;;;;;;;;;4922007;29;20028;-84
2022/08/04 09:50:12;;;;;;;2.53;1.00;;;;;;;;;;4921806;29;20059;-86
2022/08/04 09:52:46;;;;;;;4.20;1.20;;;;;;;;;;4921851;29;20027;-86
2022/08/04 09:55:18;;;;;;;3.30;1.10;;;;;;;;;;4921743;29;20039;-85
2022/08/04 09:57:45;;;;;;;4.85;1.30;;;;;;;;;;4921822;29;20028;-84
2022/08/04 10:00:15;;;;;;;3.80;1.15;;;;;;;;;;4938940;29;20055;-86
2022/08/04 10:02:44;;;;;;;2.05;1.30;;;;;;;;;;4939330;29;20028;-85
2022/08/04 10:05:15;;;;;;;5.88;1.20;;;;;;;;;;4921553;29;20055;-87
2022/08/04 10:07:55;;;;;;;2.25;1.20;;;;;;;;;;4921573;29;20106;-84
2022/08/04 10:10:32;;;;;;;2.83;1.30;;;;;;;;;;4921713;29;20028;-84
2022/08/04 10:13:08;;;;;;;2.72;1.45;;;;;;;;;;4921624;29;20067;-91
2022/08/04 10:15:34;;;;;;;4.72;1.20;;;;;;;;;;4921327;29;20098;-83
2022/08/04 10:18:06;;;;;;;3.30;1.20;;;;;;;;;;4938970;29;20066;-83
2022/08/04 10:20:44;;;;;;;6.00;1.40;;;;;;;;;;4938837;29;20102;-84
2022/08/04 10:23:20;;;;;;;1.98;1.00;;;;;;;;;;4921301;29;20031;-80
2022/08/04 10:25:59;;;;;;;3.85;1.20;;;;;;;;;;4920517;29;20028;-85
2022/08/04 10:28:27;;;;;;;3.45;1.02;;;;;;;;;;4938887;29;20103;-84
2022/08/04 10:31:02;;;;;;;4.50;1.08;;;;;;;;;;4921202;29;20043;-85
2022/08/04 10:33:34;;;;;;;2.92;1.00;;;;;;;;;;4920960;29;20099;-87
2022/08/04 10:36:02;;;;;;;1.83;1.00;;;;;;;;;;4920793;29;20091;-87
2022/08/04 10:38:36;;;;;;;1.50;0.98;;;;;;;;;;4921064;29;20046;-89
2022/08/04 10:41:25;;;;;;;4.43;1.30;;;;;;;;;;4921208;29;20115;-85
2022/08/04 10:44:12;;;;;;;4.18;1.02;;;;;;;;;;4886755;29;20035;-87
2022/08/04 10:46:49;;;;;;;3.90;1.20;;;;;;;;;;4921032;29;20035;-87
2022/08/04 10:49:21;;;;;;;2.65;1.30;;;;;;;;;;4938505;29;20027;-88
2022/08/04 10:51:52;;;;;;;4.18;1.10;;;;;;;;;;4920898;29;20366;-90
2022/08/04 10:54:25;;;;;;;1.67;1.25;;;;;;;;;;4920903;29;20035;-87
2022/08/04 10:56:54;;;;;;;2.10;1.20;;;;;;;;;;4938416;29;20123;-91
2022/08/04 10:59:34;;;;;;;3.20;1.17;;;;;;;;;;4919950;29;20028;-86
2022/08/04 11:02:11;;;;;;;2.25;1.13;;;;;;;;;;4920754;29;20082;-88
2022/08/04 11:04:41;;;;;;;2.20;1.20;;;;;;;;;;4920546;29;20476;-86
2022/08/04 11:07:08;;;;;;;2.38;1.38;;;;;;;;;;4920838;29;20063;-83
2022/08/04 11:09:34;;;;;;;3.13;1.30;;;;;;;;;;4935911;29;20032;-84
2022/08/04 11:12:09;;;;;;;2.28;1.30;;;;;;;;;;4937588;29;20036;-81
2022/08/04 11:14:46;;;;;;;6.22;2.00;;;;;;;;;;4957085;29;20031;-88
2022/08/04 11:17:19;;;;;;;4.20;1.50;;;;;;;;;;4939395;29;20076;-84
2022/08/04 11:19:52;;;;;;;2.63;1.30;;;;;;;;;;4939706;29;20027;-82
2022/08/04 11:22:19;;;;;;;2.10;1.30;;;;;;;;;;4939245;29;20118;-82
2022/08/04 11:24:50;;;;;;;2.17;1.50;;;;;;;;;;4956365;29;20034;-84
2022/08/04 11:27:19;;;;;;;1.98;1.50;;;;;;;;;;4939240;29;20074;-82
2022/08/04 11:29:45;;;;;;;5.97;1.58;;;;;;;;;;4939027;29;20058;-85
2022/08/04 11:32:20;;;;;;;3.53;1.35;;;;;;;;;;4956278;29;20023;-85
2022/08/04 11:34:52;;;;;;;5.20;1.50;;;;;;;;;;4939140;29;20051;-86
2022/08/04 11:37:48;;;;;;;2.55;1.50;;;;;;;;;;4938812;29;20039;-83
2022/08/04 11:40:27;;;;;;;1.67;1.08;;;;;;;;;;4923532;29;20043;-80
2022/08/04 11:43:01;;;;;;;1.85;1.30;;;;;;;;;;4938962;29;20039;-81
2022/08/04 11:45:31;;;;;;;2.58;1.50;;;;;;;;;;4938995;29;20039;-82
2022/08/04 11:47:59;;;;;;;2.10;1.15;;;;;;;;;;4938694;29;20023;-82
2022/08/04 11:50:32;;;;;;;1.88;1.23;;;;;;;;;;4956909;29;20114;-82
2022/08/04 11:52:59;;;;;;;3.78;1.40;;;;;;;;;;4939004;29;20030;-84
2022/08/04 11:55:26;;;;;;;4.55;1.20;;;;;;;;;;4938538;29;20134;-87
2022/08/04 11:57:52;;;;;;;4.10;1.42;;;;;;;;;;4938685;29;20110;-84
2022/08/04 12:00:19;;;;;;;3.08;1.58;;;;;;;;;;4938649;29;20062;-81
2022/08/04 12:02:46;;;;;;;3.10;1.30;;;;;;;;;;4931046;29;20020;-81
2022/08/04 12:05:12;;;;;;;1.90;1.20;;;;;;;;;;4918896;29;20019;-78
2022/08/04 12:08:05;;;;;;;1.98;1.20;;;;;;;;;;4936189;29;20027;-90
2022/08/04 12:10:49;;;;;;;5.00;1.10;;;;;;;;;;4900371;29;20042;-83
2022/08/04 12:13:18;;;;;;;2.58;1.38;;;;;;;;;;4936042;29;20031;-89
2022/08/04 12:15:52;;;;;;;1.83;1.20;;;;;;;;;;4936855;29;20175;-86
2022/08/04 12:18:21;;;;;;;5.00;1.30;;;;;;;;;;4937581;29;20119;-86
2022/08/04 12:20:49;;;;;;;1.77;1.20;;;;;;;;;;4929757;29;20032;-90
2022/08/04 12:23:25;;;;;;;2.88;1.20;;;;;;;;;;4937159;29;20028;-91
2022/08/04 12:25:54;;;;;;;1.90;1.20;;;;;;;;;;4936399;29;20031;-85
2022/08/04 12:28:26;;;;;;;4.07;1.20;;;;;;;;;;4920242;29;20031;-84
2022/08/04 12:30:57;;;;;;;3.08;1.13;;;;;;;;;;4936752;29;20111;-84
2022/08/04 12:33:46;;;;;;;1.85;1.13;;;;;;;;;;4935949;29;20052;-85
2022/08/04 12:36:21;;;;;;;4.25;1.30;;;;;;;;;;4911014;29;20425;-86
2022/08/04 12:39:00;;;;;;;2.85;1.30;;;;;;;;;;4900284;29;20024;-85
2022/08/04 12:41:29;;;;;;;3.05;1.15;;;;;;;;;;4891655;29;20062;-84
2022/08/04 12:43:55;;;;;;;2.30;1.10;;;;;;;;;;4904846;29;20028;-84
2022/08/04 12:46:26;;;;;;;2.15;1.30;;;;;;;;;;4917779;29;20034;-82
2022/08/04 12:48:58;;;;;;;1.85;1.25;;;;;;;;;;4900122;29;20087;-83
2022/08/04 12:51:26;;;;;;;1.75;1.00;;;;;;;;;;4921284;29;20037;-81
2022/08/04 12:53:52;;;;;;;3.83;1.30;;;;;;;;;;4921531;29;20042;-82
2022/08/04 12:56:24;;;;;;;1.63;1.00;;;;;;;;;;4904012;29;20040;-89
2022/08/04 12:58:51;;;;;;;2.50;1.30;;;;;;;;;;4921377;29;20385;-81
2022/08/04 13:01:22;;;;;;;6.20;1.73;;;;;;;;;;4903227;29;20044;-81
2022/08/04 13:03:58;;;;;;;3.08;1.50;;;;;;;;;;4903222;29;20051;-84
2022/08/04 13:06:27;;;;;;;2.55;1.35;;;;;;;;;;4903829;29;20099;-85
2022/08/04 13:08:54;;;;;;;2.97;1.30;;;;;;;;;;4903800;29;20032;-82
2022/08/04 13:11:21;;;;;;;2.50;1.30;;;;;;;;;;4914781;29;20035;-81
2022/08/04 13:13:50;;;;;;;1.98;1.25;;;;;;;;;;4894217;29;20029;-85
2022/08/04 13:16:16;;;;;;;1.80;1.10;;;;;;;;;;4901146;29;20047;-82
2022/08/04 13:18:46;;;;;;;3.35;1.38;;;;;;;;;;4920511;29;20133;-81
2022/08/04 13:21:14;;;;;;;3.45;1.50;;;;;;;;;;4919066;29;20032;-87
2022/08/04 13:23:41;;;;;;;3.53;1.40;;;;;;;;;;4919121;29;20055;-82
2022/08/04 13:26:07;;;;;;;2.80;1.20;;;;;;;;;;4920480;29;20024;-81
2022/08/04 13:28:34;;;;;;;3.83;1.25;;;;;;;;;;4922236;29;20499;-83
2022/08/04 13:31:01;;;;;;;3.28;1.10;;;;;;;;;;4922188;29;20481;-82
2022/08/04 13:33:29;;;;;;;1.90;1.27;;;;;;;;;;4925990;29;20047;-83
2022/08/04 13:35:56;;;;;;;2.38;1.33;;;;;;;;;;4958309;29;20035;-81
2022/08/04 13:38:24;;;;;;;1.90;1.20;;;;;;;;;;4955894;29;20111;-82
2022/08/04 13:40:50;;;;;;;3.47;1.30;;;;;;;;;;4941348;29;20118;-81
2022/08/04 13:43:28;;;;;;;2.45;1.10;;;;;;;;;;4941064;29;20032;-81
2022/08/04 13:46:02;;;;;;;2.60;1.17;;;;;;;;;;4941084;29;20466;-82
2022/08/04 13:48:47;;;;;;;2.13;1.10;;;;;;;;;;4958377;29;20023;-83
2022/08/04 13:51:16;;;;;;;3.25;1.13;;;;;;;;;;4941478;29;20070;-90
2022/08/04 13:53:43;;;;;;;1.70;1.20;;;;;;;;;;4941209;29;20024;-90
2022/08/04 13:56:10;;;;;;;5.38;1.30;;;;;;;;;;4940957;29;20039;-85
2022/08/04 13:58:41;;;;;;;1.95;1.00;;;;;;;;;;4941085;29;20469;-81
2022/08/04 14:01:10;;;;;;;1.83;1.10;;;;;;;;;;4956947;28;20055;-90
2022/08/04 14:03:39;;;;;;;1.98;1.05;;;;;;;;;;4941304;29;20086;-94
2022/08/04 14:06:10;;;;;;;2.08;1.25;;;;;;;;;;4941095;29;20027;-87
2022/08/04 14:08:45;;;;;;;3.15;1.40;;;;;;;;;;4941131;29;20023;-90
2022/08/04 14:11:11;;;;;;;2.78;1.10;;;;;;;;;;4927749;29;20028;-80
2022/08/04 14:13:38;;;;;;;2.30;1.20;;;;;;;;;;4908255;29;20496;-81
2022/08/04 14:16:13;;;;;;;2.08;1.10;;;;;;;;;;4915260;29;20048;-79
2022/08/04 14:18:40;;;;;;;3.25;1.10;;;;;;;;;;4936942;29;20027;-80
2022/08/04 14:21:06;;;;;;;1.70;1.13;;;;;;;;;;4936543;29;20023;-82
2022/08/04 14:23:40;;;;;;;2.70;1.20;;;;;;;;;;4921332;29;20444;-80
2022/08/04 14:26:13;;;;;;;4.82;1.48;;;;;;;;;;4938386;29;20059;-80
2022/08/04 14:28:39;;;;;;;7.95;1.65;;;;;;;;;;4938262;29;20020;-81
2022/08/04 14:31:15;;;;;;;2.80;1.70;;;;;;;;;;4938254;29;20058;-81
2022/08/04 14:33:43;;;;;;;2.15;1.30;;;;;;;;;;4938098;29;20062;-81
2022/08/04 14:36:09;;;;;;;1.50;1.10;;;;;;;;;;4921058;29;20040;-80
2022/08/04 14:38:49;;;;;;;3.20;1.27;;;;;;;;;;4921076;29;20035;-81
2022/08/04 14:41:15;;;;;;;4.70;1.38;;;;;;;;;;4938061;29;20485;-79
2022/08/04 14:43:43;;;;;;;1.70;1.20;;;;;;;;;;4937996;29;20042;-79
2022/08/04 14:46:11;;;;;;;2.75;1.50;;;;;;;;;;4921410;29;20032;-80
2022/08/04 14:48:38;;;;;;;4.80;1.50;;;;;;;;;;4918982;29;20377;-81
2022/08/04 14:51:04;;;;;;;4.63;1.50;;;;;;;;;;4901912;29;20043;-83
2022/08/04 14:53:31;;;;;;;4.18;1.50;;;;;;;;;;4919370;29;20028;-81
2022/08/04 14:55:58;;;;;;;3.15;1.40;;;;;;;;;;4920061;29;20038;-80
2022/08/04 14:58:26;;;;;;;2.60;1.83;;;;;;;;;;4918706;29;20538;-78
2022/08/04 15:00:54;;;;;;;4.80;1.50;;;;;;;;;;4917424;29;20103;-78
2022/08/04 15:03:21;;;;;;;2.47;1.55;;;;;;;;;;4908289;29;20553;-80
2022/08/04 15:05:48;;;;;;;2.70;1.50;;;;;;;;;;4920336;29;20110;-79
2022/08/04 15:08:14;;;;;;;3.22;1.70;;;;;;;;;;4912062;29;20087;-84
2022/08/04 15:10:41;;;;;;;2.25;1.58;;;;;;;;;;4901606;29;20028;-85